createdAt,value
2018-07-05T00:00:53.318Z,96324.00
2018-07-05T00:06:05.848Z,96329.00
2018-07-05T00:08:52.884Z,96321.00
2018-07-05T00:11:39.764Z,96320.00
2018-07-05T00:14:26.756Z,96323.00
2018-07-05T00:17:14.010Z,96317.00
2018-07-05T00:20:01.120Z,96326.00
2018-07-05T00:22:48.020Z,96314.00
2018-07-05T00:25:35.445Z,96319.00
2018-07-05T00:28:22.236Z,96312.00
2018-07-05T00:31:09.361Z,96303.00
2018-07-05T00:33:56.408Z,96306.00
2018-07-05T00:36:43.466Z,96298.00
2018-07-05T00:39:30.449Z,96295.00
2018-07-05T00:42:17.657Z,96290.00
2018-07-05T00:45:04.516Z,96287.00
2018-07-05T00:47:45.521Z,96295.00
2018-07-05T00:50:32.272Z,96284.00
2018-07-05T00:53:19.236Z,96288.00
2018-07-05T00:56:06.435Z,96276.00
2018-07-05T00:58:53.552Z,96277.00
2018-07-05T01:01:34.558Z,96275.00
2018-07-05T01:04:21.544Z,96274.00
2018-07-05T01:07:08.524Z,96268.00
2018-07-05T01:09:55.603Z,96268.00
2018-07-05T01:12:42.674Z,96282.00
2018-07-05T01:15:29.455Z,96279.00
2018-07-05T01:18:16.390Z,96281.00
2018-07-05T01:21:03.353Z,96273.00
2018-07-05T01:23:50.497Z,96269.00
2018-07-05T01:26:37.501Z,96271.00
2018-07-05T01:29:18.404Z,96264.00
2018-07-05T01:32:05.282Z,96255.00
2018-07-05T01:34:52.239Z,96248.00
2018-07-05T01:37:39.532Z,96252.00
2018-07-05T01:40:26.509Z,96264.00
2018-07-05T01:43:13.755Z,96268.00
2018-07-05T01:46:00.821Z,96266.00
2018-07-05T01:48:47.818Z,96260.00
2018-07-05T01:51:34.785Z,96254.00
2018-07-05T01:54:21.888Z,96261.00
2018-07-05T01:57:08.862Z,96256.00
2018-07-05T01:59:56.029Z,96267.00
2018-07-05T02:02:43.079Z,96265.00
2018-07-05T02:05:30.226Z,96275.00
2018-07-05T02:08:17.513Z,96271.00
2018-07-05T02:11:04.536Z,96269.00
2018-07-05T02:13:51.617Z,96266.00
2018-07-05T02:16:38.585Z,96261.00
2018-07-05T02:19:25.504Z,96266.00
2018-07-05T02:22:12.498Z,96263.00
2018-07-05T02:24:59.551Z,96257.00
2018-07-05T02:27:46.521Z,96269.00
2018-07-05T02:30:33.408Z,96263.00
2018-07-05T02:33:20.605Z,96257.00
2018-07-05T02:36:01.544Z,96249.00
2018-07-05T02:38:53.925Z,96245.00
2018-07-05T02:41:41.043Z,96245.00
2018-07-05T02:44:28.193Z,96247.00
2018-07-05T02:47:09.056Z,96249.00
2018-07-05T02:49:56.003Z,96253.00
2018-07-05T02:52:43.125Z,96251.00
2018-07-05T02:55:30.273Z,96250.00
2018-07-05T02:58:17.316Z,96256.00
2018-07-05T03:01:04.408Z,96252.00
2018-07-05T03:03:55.728Z,96248.00
2018-07-05T03:06:42.866Z,96243.00
2018-07-05T03:09:30.029Z,96244.00
2018-07-05T03:12:16.925Z,96244.00
2018-07-05T03:15:03.831Z,96248.00
2018-07-05T03:17:50.914Z,96248.00
2018-07-05T03:20:38.009Z,96241.00
2018-07-05T03:26:32.808Z,96241.00
2018-07-05T03:29:19.677Z,96247.00
2018-07-05T03:32:06.656Z,96257.00
2018-07-05T03:34:53.735Z,96262.00
2018-07-05T03:37:40.668Z,96254.00
2018-07-05T03:40:27.757Z,96259.00
2018-07-05T03:43:14.812Z,96259.00
2018-07-05T03:46:01.697Z,96262.00
2018-07-05T03:48:48.576Z,96257.00
2018-07-05T03:51:35.477Z,96267.00
2018-07-05T03:54:22.441Z,96268.00
2018-07-05T03:57:09.449Z,96255.00
2018-07-05T03:59:56.472Z,96260.00
2018-07-05T04:02:43.793Z,96255.00
2018-07-05T04:05:30.763Z,96257.00
2018-07-05T04:08:17.818Z,96262.00
2018-07-05T04:11:05.368Z,96264.00
2018-07-05T04:17:10.601Z,96260.00
2018-07-05T04:19:57.492Z,96256.00
2018-07-05T04:22:44.493Z,96251.00
2018-07-05T04:25:31.360Z,96252.00
2018-07-05T04:28:18.213Z,96259.00
2018-07-05T04:31:05.109Z,96254.00
2018-07-05T04:33:52.013Z,96264.00
2018-07-05T04:36:38.964Z,96255.00
2018-07-05T04:39:25.756Z,96262.00
2018-07-05T04:42:12.726Z,96261.00
2018-07-05T04:45:03.508Z,96261.00
2018-07-05T04:47:50.762Z,96251.00
2018-07-05T04:50:37.726Z,96249.00
2018-07-05T04:53:24.771Z,96253.00
2018-07-05T04:56:11.739Z,96253.00
2018-07-05T04:58:58.726Z,96250.00
2018-07-05T05:01:45.864Z,96241.00
2018-07-05T05:04:32.632Z,96245.00
2018-07-05T05:07:19.716Z,96242.00
2018-07-05T05:10:07.164Z,96233.00
2018-07-05T05:12:54.297Z,96235.00
2018-07-05T05:15:41.381Z,96237.00
2018-07-05T05:18:28.445Z,96236.00
2018-07-05T05:21:15.681Z,96244.00
2018-07-05T05:24:02.640Z,96246.00
2018-07-05T05:26:49.825Z,96256.00
2018-07-05T05:29:37.040Z,96258.00
2018-07-05T05:32:24.297Z,96267.00
2018-07-05T05:35:11.324Z,96267.00
2018-07-05T05:37:58.609Z,96259.00
2018-07-05T05:40:45.681Z,96259.00
2018-07-05T05:43:32.750Z,96257.00
2018-07-05T05:46:20.298Z,96257.00
2018-07-05T05:49:07.402Z,96257.00
2018-07-05T05:51:54.356Z,96259.00
2018-07-05T05:54:41.426Z,96261.00
2018-07-05T05:57:28.460Z,96265.00
2018-07-05T06:00:15.328Z,96265.00
2018-07-05T06:03:02.425Z,96264.00
2018-07-05T06:05:49.323Z,96262.00
2018-07-05T06:08:36.432Z,96265.00
2018-07-05T06:11:23.661Z,96266.00
2018-07-05T06:14:10.660Z,96253.00
2018-07-05T06:16:57.849Z,96249.00
2018-07-05T06:19:38.934Z,96250.00
2018-07-05T06:22:26.125Z,96255.00
2018-07-05T06:25:13.086Z,96263.00
2018-07-05T06:28:00.208Z,96254.00
2018-07-05T06:30:47.188Z,96254.00
2018-07-05T06:33:34.483Z,96262.00
2018-07-05T06:36:21.568Z,96254.00
2018-07-05T06:39:09.029Z,96247.00
2018-07-05T06:41:56.457Z,96253.00
2018-07-05T06:44:43.481Z,96259.00
2018-07-05T06:47:30.640Z,96255.00
2018-07-05T06:50:17.817Z,96262.00
2018-07-05T06:53:04.852Z,96251.00
2018-07-05T06:55:51.820Z,96252.00
2018-07-05T06:58:38.661Z,96256.00
2018-07-05T07:01:25.708Z,96251.00
2018-07-05T07:04:12.752Z,96250.00
2018-07-05T07:06:59.779Z,96251.00
2018-07-05T07:09:46.808Z,96250.00
2018-07-05T07:12:33.755Z,96240.00
2018-07-05T07:15:20.697Z,96240.00
2018-07-05T07:18:07.876Z,96242.00
2018-07-05T07:20:54.868Z,96247.00
2018-07-05T07:23:41.787Z,96240.00
2018-07-05T07:26:28.996Z,96238.00
2018-07-05T07:29:16.105Z,96240.00
2018-07-05T07:32:03.192Z,96240.00
2018-07-05T07:34:50.174Z,96233.00
2018-07-05T07:37:37.197Z,96228.00
2018-07-05T07:40:24.080Z,96221.00
2018-07-05T07:42:52.444Z,96219.00
2018-07-05T07:45:20.833Z,96219.00
2018-07-05T07:47:49.220Z,96227.00
2018-07-05T07:50:17.604Z,96223.00
2018-07-05T07:52:45.976Z,96231.00
2018-07-05T07:55:14.348Z,96217.00
2018-07-05T07:57:42.748Z,96233.00
2018-07-05T08:00:11.129Z,96219.00
2018-07-05T08:02:39.500Z,96227.00
2018-07-05T08:05:07.910Z,96230.00
2018-07-05T08:07:36.294Z,96229.00
2018-07-05T08:10:04.668Z,96215.00
2018-07-05T08:12:33.071Z,96218.00
2018-07-05T08:15:01.483Z,96211.00
2018-07-05T08:17:29.839Z,96219.00
2018-07-05T08:19:58.329Z,96223.00
2018-07-05T08:22:26.703Z,96222.00
2018-07-05T08:24:55.081Z,96208.00
2018-07-05T08:27:23.459Z,96218.00
2018-07-05T08:29:51.820Z,96201.00
2018-07-05T08:32:20.219Z,96208.00
2018-07-05T08:34:48.576Z,96205.00
2018-07-05T08:37:16.952Z,96196.00
2018-07-05T08:39:45.428Z,96201.00
2018-07-05T08:42:13.919Z,96199.00
2018-07-05T08:44:42.278Z,96199.00
2018-07-05T08:47:10.644Z,96188.00
2018-07-05T08:49:39.048Z,96181.00
2018-07-05T08:52:07.412Z,96185.00
2018-07-05T08:54:35.784Z,96184.00
2018-07-05T08:57:04.165Z,96179.00
2018-07-05T08:59:32.536Z,96176.00
2018-07-05T09:02:00.901Z,96176.00
2018-07-05T09:04:29.364Z,96172.00
2018-07-05T09:06:58.037Z,96176.00
2018-07-05T09:09:26.419Z,96179.00
2018-07-05T09:11:54.862Z,96170.00
2018-07-05T09:14:23.188Z,96174.00
2018-07-05T09:16:51.584Z,96175.00
2018-07-05T09:19:19.952Z,96175.00
2018-07-05T09:21:48.333Z,96166.00
2018-07-05T09:24:16.712Z,96158.00
2018-07-05T09:26:45.168Z,96166.00
2018-07-05T09:29:13.626Z,96160.00
2018-07-05T09:31:41.983Z,96155.00
2018-07-05T09:34:10.365Z,96149.00
2018-07-05T09:36:38.749Z,96157.00
2018-07-05T09:39:07.600Z,96151.00
2018-07-05T09:41:36.772Z,96151.00
2018-07-05T09:44:05.146Z,96150.00
2018-07-05T09:46:33.559Z,96146.00
2018-07-05T09:49:01.938Z,96139.00
2018-07-05T09:51:30.505Z,96144.00
2018-07-05T09:53:58.864Z,96139.00
2018-07-05T09:56:27.241Z,96138.00
2018-07-05T09:58:55.620Z,96137.00
2018-07-05T10:01:23.980Z,96121.00
2018-07-05T10:03:52.386Z,96126.00
2018-07-05T10:06:20.744Z,96125.00
2018-07-05T10:08:49.120Z,96126.00
2018-07-05T10:11:17.495Z,96118.00
2018-07-05T10:13:46.298Z,96116.00
2018-07-05T10:16:14.492Z,96117.00
2018-07-05T10:18:43.000Z,96110.00
2018-07-05T10:21:11.368Z,96108.00
2018-07-05T10:23:39.756Z,96105.00
2018-07-05T10:26:08.120Z,96112.00
2018-07-05T10:28:36.720Z,96113.00
2018-07-05T10:31:23.912Z,96105.00
2018-07-05T10:33:52.280Z,96103.00
2018-07-05T10:36:20.652Z,96100.00
2018-07-05T10:38:49.017Z,96099.00
2018-07-05T10:41:36.288Z,96096.00
2018-07-05T10:44:23.196Z,96077.00
2018-07-05T10:47:10.158Z,96079.00
2018-07-05T10:49:57.309Z,96068.00
2018-07-05T10:52:44.232Z,96068.00
2018-07-05T10:55:31.262Z,96065.00
2018-07-05T10:58:18.376Z,96079.00
2018-07-05T11:01:05.676Z,96071.00
2018-07-05T11:03:52.544Z,96079.00
2018-07-05T11:06:39.673Z,96069.00
2018-07-05T11:09:26.684Z,96058.00
2018-07-05T11:12:13.776Z,96061.00
2018-07-05T11:15:00.920Z,96053.00
2018-07-05T11:17:49.217Z,96050.00
2018-07-05T11:20:37.272Z,96048.00
2018-07-05T11:23:25.308Z,96053.00
2018-07-05T11:26:13.453Z,96038.00
2018-07-05T11:29:01.482Z,96033.00
2018-07-05T11:31:49.559Z,96033.00
2018-07-05T11:34:37.880Z,96027.00
2018-07-05T11:37:26.181Z,96026.00
2018-07-05T11:40:14.284Z,96021.00
2018-07-05T11:43:02.509Z,96025.00
2018-07-05T11:45:50.708Z,96007.00
2018-07-05T11:48:38.760Z,96011.00
2018-07-05T11:51:25.843Z,96005.00
2018-07-05T11:54:12.960Z,96017.00
2018-07-05T11:57:00.181Z,96002.00
2018-07-05T11:59:47.232Z,95999.00
2018-07-05T12:02:34.315Z,95998.00
2018-07-05T12:05:21.195Z,95990.00
2018-07-05T12:08:08.417Z,95990.00
2018-07-05T12:10:55.524Z,95992.00
2018-07-05T12:13:42.576Z,95993.00
2018-07-05T12:16:29.616Z,95986.00
2018-07-05T12:19:16.787Z,95974.00
2018-07-05T12:22:03.937Z,95982.00
2018-07-05T12:24:50.936Z,95978.00
2018-07-05T12:27:37.964Z,95978.00
2018-07-05T12:30:25.020Z,95971.00
2018-07-05T12:33:12.703Z,95961.00
2018-07-05T12:35:59.989Z,95962.00
2018-07-05T12:38:46.948Z,95956.00
2018-07-05T12:41:33.891Z,95953.00
2018-07-05T12:44:21.004Z,95953.00
2018-07-05T12:47:08.068Z,95946.00
2018-07-05T12:49:55.096Z,95947.00
2018-07-05T12:52:42.228Z,95947.00
2018-07-05T12:55:29.223Z,95940.00
2018-07-05T12:58:16.213Z,95943.00
2018-07-05T13:01:03.311Z,95933.00
2018-07-05T13:03:50.480Z,95935.00
2018-07-05T13:06:37.709Z,95934.00
2018-07-05T13:09:24.789Z,95929.00
2018-07-05T13:12:12.008Z,95921.00
2018-07-05T13:14:59.202Z,95932.00
2018-07-05T13:17:46.125Z,95925.00
2018-07-05T13:20:33.221Z,95931.00
2018-07-05T13:23:20.477Z,95926.00
2018-07-05T13:26:07.392Z,95929.00
2018-07-05T13:28:54.504Z,95932.00
2018-07-05T13:31:41.593Z,95929.00
2018-07-05T13:34:28.592Z,95938.00
2018-07-05T13:37:15.838Z,95927.00
2018-07-05T13:39:57.031Z,95921.00
2018-07-05T13:42:43.977Z,95911.00
2018-07-05T13:45:31.169Z,95907.00
2018-07-05T13:48:18.256Z,95907.00
2018-07-05T13:51:05.227Z,95905.00
2018-07-05T13:53:46.444Z,95910.00
2018-07-05T13:56:33.456Z,95901.00
2018-07-05T13:59:20.556Z,95897.00
2018-07-05T14:02:07.332Z,95901.00
2018-07-05T14:04:54.391Z,95894.00
2018-07-05T14:07:41.264Z,95901.00
2018-07-05T14:10:28.420Z,95906.00
2018-07-05T14:13:15.521Z,95914.00
2018-07-05T14:16:02.568Z,95924.00
2018-07-05T14:18:50.043Z,95921.00
2018-07-05T14:21:37.196Z,95916.00
2018-07-05T14:24:24.315Z,95889.00
2018-07-05T14:27:11.293Z,95879.00
2018-07-05T14:29:58.569Z,95879.00
2018-07-05T14:32:45.653Z,95904.00
2018-07-05T14:35:32.864Z,95916.00
2018-07-05T14:38:19.769Z,95915.00
2018-07-05T14:41:06.695Z,95917.00
2018-07-05T14:43:53.556Z,95917.00
2018-07-05T14:46:40.716Z,95911.00
2018-07-05T14:49:27.752Z,95923.00
2018-07-05T14:52:15.124Z,95967.00
2018-07-05T14:55:02.065Z,96006.00
2018-07-05T14:57:49.204Z,96019.00
2018-07-05T15:00:36.240Z,96043.00
2018-07-05T15:03:23.280Z,96079.00
2018-07-05T15:06:10.420Z,96184.00
2018-07-05T15:08:57.525Z,96124.00
2018-07-05T15:11:44.420Z,96112.00
2018-07-05T15:14:32.152Z,96084.00
2018-07-05T15:17:19.296Z,96048.00
2018-07-05T15:20:06.428Z,96030.00
2018-07-05T15:22:53.276Z,96037.00
2018-07-05T15:25:40.300Z,96042.00
2018-07-05T15:28:27.277Z,96039.00
2018-07-05T15:31:14.216Z,96051.00
2018-07-05T15:34:00.874Z,96039.00
2018-07-05T15:36:47.752Z,96038.00
2018-07-05T15:39:34.756Z,96032.00
2018-07-05T15:42:21.859Z,96040.00
2018-07-05T15:45:09.113Z,96053.00
2018-07-05T15:47:56.172Z,96034.00
2018-07-05T15:50:43.240Z,96023.00
2018-07-05T15:53:30.106Z,96018.00
2018-07-05T15:56:17.073Z,96014.00
2018-07-05T15:59:04.099Z,96004.00
2018-07-05T16:01:51.080Z,95998.00
2018-07-05T16:04:32.222Z,95990.00
2018-07-05T16:07:19.157Z,95975.00
2018-07-05T16:10:06.233Z,95946.00
2018-07-05T16:12:53.238Z,95935.00
2018-07-05T16:15:40.220Z,95931.00
2018-07-05T16:18:27.332Z,95927.00
2018-07-05T16:21:14.432Z,95932.00
2018-07-05T16:24:01.382Z,95933.00
2018-07-05T16:26:48.400Z,95926.00
2018-07-05T16:29:35.368Z,95930.00
2018-07-05T16:32:22.252Z,95933.00
2018-07-05T16:35:09.093Z,95919.00
2018-07-05T16:37:56.094Z,95923.00
2018-07-05T16:40:43.135Z,95937.00
2018-07-05T16:43:30.320Z,95944.00
2018-07-05T16:46:17.423Z,95958.00
2018-07-05T16:49:04.377Z,95961.00
2018-07-05T16:51:51.428Z,95972.00
2018-07-05T16:54:38.357Z,95986.00
2018-07-05T16:57:25.454Z,95975.00
2018-07-05T17:00:12.500Z,95987.00
2018-07-05T17:02:59.333Z,95986.00
2018-07-05T17:05:46.476Z,95990.00
2018-07-05T17:08:33.783Z,96001.00
2018-07-05T17:11:20.900Z,96011.00
2018-07-05T17:14:07.975Z,96033.00
2018-07-05T17:16:54.920Z,96050.00
2018-07-05T17:19:42.156Z,96077.00
2018-07-05T17:22:29.336Z,96095.00
2018-07-05T17:25:16.558Z,96117.00
2018-07-05T17:27:57.742Z,96115.00
2018-07-05T17:30:46.480Z,96113.00
2018-07-05T17:33:33.723Z,96118.00
2018-07-05T17:36:20.652Z,96112.00
2018-07-05T17:39:07.711Z,96110.00
2018-07-05T17:41:54.888Z,96108.00
2018-07-05T17:44:41.941Z,96107.00
2018-07-05T17:47:29.076Z,96109.00
2018-07-05T17:50:16.104Z,96108.00
2018-07-05T17:53:03.040Z,96098.00
2018-07-05T17:55:50.168Z,96107.00
2018-07-05T17:58:37.179Z,96097.00
2018-07-05T18:01:24.144Z,96098.00
2018-07-05T18:04:11.268Z,96099.00
2018-07-05T18:06:58.391Z,96102.00
2018-07-05T18:09:39.812Z,96094.00
2018-07-05T18:12:26.839Z,96094.00
2018-07-05T18:15:14.328Z,96100.00
2018-07-05T18:18:01.224Z,96096.00
2018-07-05T18:20:48.190Z,96088.00
2018-07-05T18:23:35.152Z,96085.00
2018-07-05T18:26:22.263Z,96078.00
2018-07-05T18:29:09.321Z,96083.00
2018-07-05T18:31:56.405Z,96076.00
2018-07-05T18:34:43.519Z,96078.00
2018-07-05T18:37:30.608Z,96073.00
2018-07-05T18:40:17.712Z,96070.00
2018-07-05T18:43:04.872Z,96061.00
2018-07-05T18:45:52.004Z,96062.00
2018-07-05T18:48:38.856Z,96053.00
2018-07-05T18:51:25.920Z,96054.00
2018-07-05T18:54:13.037Z,96047.00
2018-07-05T18:56:59.984Z,96045.00
2018-07-05T18:59:46.931Z,96050.00
2018-07-05T19:02:33.928Z,96046.00
2018-07-05T19:05:21.101Z,96041.00
2018-07-05T19:08:08.054Z,96037.00
2018-07-05T19:10:55.071Z,96037.00
2018-07-05T19:13:41.804Z,96039.00
2018-07-05T19:16:29.008Z,96033.00
2018-07-05T19:19:16.068Z,96032.00
2018-07-05T19:22:03.398Z,96029.00
2018-07-05T19:24:50.394Z,96023.00
2018-07-05T19:27:37.409Z,96025.00
2018-07-05T19:30:24.377Z,96010.00
2018-07-05T19:33:11.359Z,96001.00
2018-07-05T19:35:58.469Z,96004.00
2018-07-05T19:38:45.485Z,96004.00
2018-07-05T19:41:32.621Z,96005.00
2018-07-05T19:44:19.696Z,95997.00
2018-07-05T19:47:06.823Z,96000.00
2018-07-05T19:49:53.960Z,96009.00
2018-07-05T19:52:41.040Z,96000.00
2018-07-05T19:55:28.092Z,95994.00
2018-07-05T19:58:15.265Z,96003.00
2018-07-05T20:01:02.224Z,95994.00
2018-07-05T20:03:43.230Z,95995.00
2018-07-05T20:06:30.248Z,96001.00
2018-07-05T20:09:17.345Z,96002.00
2018-07-05T20:12:07.881Z,96011.00
2018-07-05T20:14:54.794Z,96026.00
2018-07-05T20:17:41.967Z,96015.00
2018-07-05T20:20:28.945Z,96021.00
2018-07-05T20:23:16.072Z,96013.00
2018-07-05T20:26:02.920Z,96013.00
2018-07-05T20:28:49.992Z,96014.00
2018-07-05T20:31:36.840Z,96013.00
2018-07-05T20:34:23.693Z,96018.00
2018-07-05T20:37:04.718Z,96012.00
2018-07-05T20:39:51.648Z,96013.00
2018-07-05T20:42:38.700Z,96015.00
2018-07-05T20:45:25.865Z,96019.00
2018-07-05T20:48:13.321Z,96005.00
2018-07-05T20:51:00.372Z,96009.00
2018-07-05T20:53:47.557Z,96010.00
2018-07-05T20:56:34.472Z,96027.00
2018-07-05T20:59:21.571Z,96040.00
2018-07-05T21:02:08.676Z,96037.00
2018-07-05T21:04:55.601Z,96033.00
2018-07-05T21:07:42.660Z,96036.00
2018-07-05T21:10:29.760Z,96032.00
2018-07-05T21:13:16.888Z,96028.00
2018-07-05T21:16:04.081Z,96036.00
2018-07-05T21:18:50.996Z,96037.00
2018-07-05T21:21:32.040Z,96037.00
2018-07-05T21:24:18.976Z,96032.00
2018-07-05T21:27:06.025Z,96038.00
